Date,TemperatureHighF,TemperatureAvgF,TemperatureLowF,DewpointHighF,DewpointAvgF,DewpointLowF,HumidityHigh,HumidityAvg,HumidityLow,PressureMaxIn,PressureMinIn,WindSpeedMaxMPH,WindSpeedAvgMPH,GustSpeedMaxMPH,PrecipitationSumIn
2014-1-1,23.4,19.8,13.0,20.1,16.6,10.4,91,87,82,30.26,30.17,21,9,21,0.00
2014-1-2,15.3,11.1,1.1,11.2,7.0,-2.8,89,83,78,30.51,30.19,23,12,23,0.00
2014-1-3,22.7,9.4,-4.1,15.7,4.2,-7.9,87,80,68,30.52,29.99,30,7,30,0.00
2014-1-4,36.2,28.3,22.2,29.2,21.5,16.2,93,76,62,30.03,29.88,11,6,23,0.00
2014-1-5,22.9,8.1,-5.4,21.2,4.8,-12.2,93,86,71,30.31,30.02,35,20,35,0.00
2014-1-6,-5.4,-8.8,-12.9,-12.2,-16.0,-20.6,73,70,65,30.47,30.30,31,11,33,0.00
2014-1-7,11.1,-0.1,-7.5,4.1,-6.5,-13.8,78,74,68,30.45,30.28,17,6,17,0.00
2014-2-20,52.4,39.1,35.6,50.6,36.2,31.4,97,89,78,29.85,29.20,26,12,58,0.73
2014-2-21,42.0,33.9,28.2,31.0,25.0,18.8,91,71,53,29.91,29.52,27,15,44,0.00
2014-2-22,35.8,30.5,25.5,28.8,24.1,18.2,89,77,54,30.13,29.92,12,4,18,0.00
2014-2-23,27.5,22.8,19.8,18.0,14.3,10.8,74,69,63,30.36,30.13,13,10,19,0.00
2014-2-24,25.7,21.7,17.5,16.1,13.3,11.5,80,70,60,30.42,30.30,12,8,18,0.00
2014-2-25,20.9,15.3,9.6,16.3,9.3,1.5,89,77,60,30.37,30.30,22,12,31,0.00
2014-2-26,22.6,16.7,0.4,12.7,4.5,-5.1,77,58,49,30.39,29.85,32,12,32,0.66
2014-2-27,22.2,10.7,5.9,13.5,-0.4,-5.3,72,60,48,30.25,29.86,34,10,34,0.00
2014-2-28,39.3,23.5,6.2,24.8,12.8,-1.9,75,64,51,30.22,29.98,21,8,24,0.00
2014-3-1,34.2,23.8,12.7,26.5,18.2,9.6,90,79,68,30.39,30.02,21,10,21,0.00
2014-3-2,12.7,6.9,-0.2,9.5,0.6,-8.1,88,75,64,30.53,30.37,20,12,20,0.00
2014-3-3,19.0,5.9,-6.7,6.3,-3.5,-14.4,76,65,52,30.61,30.40,13,4,14,0.00
2014-3-4,36.2,21.3,11.3,16.1,11.0,4.8,81,66,39,30.43,30.19,12,2,12,0.00
2014-3-5,27.5,24.0,21.5,21.8,18.1,14.5,87,78,65,30.42,30.23,22,8,22,0.00
2014-3-6,35.9,26.0,15.5,23.1,19.0,12.3,90,76,51,30.41,30.10,11,2,11,0.00
2014-3-7,51.9,36.9,23.6,36.4,29.5,20.9,94,76,50,30.10,29.89,12,3,12,0.00
2014-3-8,35.5,33.5,30.9,32.9,30.9,28.3,94,90,82,30.31,30.01,14,4,14,0.16
2014-3-9,46.8,36.6,24.0,35.8,29.9,21.9,93,77,64,30.31,29.90,11,2,17,0.00
2014-3-10,57.2,47.9,39.1,46.2,38.7,33.0,92,71,60,29.90,29.69,19,4,19,0.00
2014-3-11,57.3,43.6,35.5,48.1,38.9,33.4,94,84,65,29.71,29.57,27,6,27,0.16
2014-3-12,36.8,31.5,23.5,34.7,28.6,20.6,95,89,74,30.15,29.66,22,11,25,0.57
2014-3-13,50.0,34.7,20.3,39.1,28.9,17.8,92,80,65,30.17,29.88,18,5,19,0.17
2014-3-14,56.3,46.5,38.3,43.0,35.9,31.1,82,67,53,29.96,29.68,37,11,37,0.00
2014-3-15,51.1,40.4,31.2,36.4,31.5,27.4,89,72,47,30.16,29.96,22,6,22,0.00
2014-3-16,33.4,26.9,21.4,28.8,19.4,13.3,87,74,54,30.31,30.15,28,13,28,0.00
2014-3-17,39.4,28.4,16.9,26.7,19.9,13.7,88,72,49,30.19,29.79,15,5,16,0.00
2014-3-18,53.7,41.2,31.8,43.8,35.5,26.0,92,81,67,29.83,29.56,39,12,39,0.00
2014-3-19,46.9,40.2,33.2,45.5,36.5,28.4,95,87,74,30.09,29.56,34,14,34,0.18
2014-3-20,53.4,40.8,29.5,38.2,32.6,26.2,90,74,48,30.09,29.95,13,4,13,0.00
2014-3-21,60.8,47.3,35.3,43.0,36.6,30.0,83,68,46,29.99,29.73,33,8,33,0.00
2014-3-22,40.4,35.5,28.7,32.6,27.4,18.0,82,72,53,30.39,29.99,29,13,33,0.00
2014-3-23,33.7,26.9,21.6,19.8,15.5,11.9,83,62,43,30.51,30.39,22,9,22,0.00
2014-3-24,36.8,27.8,22.6,27.1,18.5,13.6,83,69,47,30.43,30.15,15,4,15,0.00
2014-3-25,31.9,26.3,20.1,29.1,17.4,10.3,92,70,49,30.32,30.12,35,14,35,0.00
2014-3-26,44.2,33.3,15.0,25.7,19.4,12.1,89,59,37,30.37,29.99,27,9,27,0.00
2014-3-27,55.8,44.5,35.9,51.4,40.2,25.1,94,85,54,29.99,29.46,48,11,48,0.47
2014-3-28,46.4,40.5,38.7,41.3,37.3,35.2,91,88,83,29.97,29.56,41,19,45,0.00
2014-3-29,49.6,39.6,35.2,36.7,33.1,29.7,92,79,56,30.26,30.14,13,5,21,0.00
2014-3-30,61.2,44.8,28.8,42.0,35.1,26.1,93,71,45,30.28,30.01,19,6,19,0.00
2014-3-31,66.3,55.1,41.1,46.8,41.6,37.0,86,62,43,30.02,29.67,36,12,36,0.00
2014-4-1,59.0,42.7,31.4,47.2,30.6,22.5,76,62,48,30.11,29.73,37,13,40,0.00
2014-4-2,47.4,43.9,39.3,40.6,36.0,31.0,84,74,66,30.13,29.93,18,7,21,0.05
2014-4-3,43.2,42.1,40.7,39.2,37.5,36.8,93,84,79,29.94,29.80,20,10,20,0.48
2014-4-4,48.4,40.5,35.7,47.6,35.6,31.3,97,83,70,30.11,29.48,29,17,46,0.00
2014-4-5,53.2,42.7,33.6,34.2,31.6,28.8,88,66,44,30.25,30.11,9,3,13,0.00
2014-4-6,57.2,45.2,32.8,37.8,34.6,29.4,89,68,44,30.16,29.92,9,4,19,0.00
2014-4-7,56.9,49.6,39.8,45.8,38.3,32.9,84,67,41,29.91,29.64,18,6,19,0.00
2014-4-8,60.2,50.1,40.3,43.1,38.0,32.7,90,66,37,29.97,29.70,25,11,25,0.00
2014-4-9,63.9,51.2,36.5,38.4,34.6,29.8,86,57,30,30.08,29.86,21,7,21,0.00
2014-4-10,64.4,56.9,44.8,46.6,38.6,31.0,62,51,32,29.98,29.72,28,7,28,0.00
2014-4-11,72.5,56.7,36.2,38.6,31.8,28.1,81,44,20,30.08,29.97,17,3,18,0.00
2014-4-12,80.0,66.6,52.5,59.6,50.9,35.1,73,58,42,30.00,29.62,26,7,26,0.00
2014-4-13,69.0,64.5,60.3,62.8,58.6,54.8,94,81,69,29.73,29.38,25,6,25,0.34
2014-4-14,60.5,39.6,31.7,55.0,36.7,27.6,95,89,82,30.07,29.39,35,15,35,0.16
2014-4-15,42.5,34.4,26.8,27.6,23.4,19.7,85,66,42,30.22,30.07,27,9,27,0.00
2014-4-16,55.9,43.7,31.2,33.9,29.0,22.9,81,58,36,30.25,30.03,36,12,36,0.00
2014-4-17,54.9,48.1,42.1,42.0,37.7,32.6,79,67,58,30.28,30.08,17,6,19,0.00
2014-4-18,66.0,51.8,34.7,41.3,35.9,29.5,92,59,27,30.35,30.23,17,3,18,0.00
2014-4-19,72.6,55.7,37.3,41.7,34.9,26.3,75,48,27,30.33,30.15,18,6,20,0.00
2014-4-20,80.3,65.3,49.2,48.9,43.7,38.6,70,48,29,30.18,30.00,20,5,20,0.00
2014-4-21,72.0,64.8,58.2,60.7,53.8,46.2,92,68,49,30.00,29.83,26,5,26,0.00
2014-4-22,63.8,52.0,41.9,51.9,39.6,30.7,80,65,29,30.04,29.86,23,12,27,0.00
2014-4-23,59.9,51.6,38.6,41.1,34.4,28.3,71,53,31,30.18,29.94,18,5,18,0.02
2014-4-24,69.8,58.6,49.3,54.5,44.0,36.8,92,60,37,29.97,29.55,32,9,32,0.07
2014-4-25,73.2,60.1,44.6,52.5,45.8,39.4,94,64,31,29.89,29.62,30,9,30,0.03
2014-4-26,76.3,61.8,47.0,49.5,42.6,32.1,83,51,35,29.89,29.79,25,8,27,0.00
2014-4-27,76.8,60.0,46.6,62.5,49.7,31.5,92,70,45,29.89,29.58,29,11,29,0.54
2014-4-28,71.7,60.1,51.8,64.9,56.8,49.8,97,89,58,29.64,29.34,36,9,36,0.38
2014-4-29,56.7,54.1,52.4,52.0,49.8,44.7,95,86,69,29.48,29.40,12,3,12,0.00
2014-4-30,51.5,46.1,41.8,47.3,40.8,36.6,94,82,68,29.83,29.67,18,8,28,0.00
2014-5-1,48.9,46.7,43.5,44.2,42.3,39.9,90,85,76,29.91,29.76,16,9,28,0.02
2014-5-2,46.5,46.5,46.4,42.5,42.5,42.3,86,86,86,29.90,29.90,15,11,15,0.00
2014-5-3,70.8,63.3,47.1,49.0,43.2,37.8,80,50,32,29.92,29.73,29,12,29,0.03
2014-5-4,67.0,56.6,46.1,48.3,40.8,25.9,90,58,35,30.05,29.91,23,6,23,0.00
2014-5-5,70.5,57.8,46.9,46.8,37.3,21.7,64,47,31,29.97,29.80,23,9,23,0.00
2014-5-6,79.4,63.6,46.5,58.9,46.4,36.9,72,55,39,29.91,29.68,16,10,26,0.00
2014-5-7,86.8,74.2,65.8,67.3,61.0,56.0,74,64,44,29.75,29.67,11,6,25,0.06
2014-5-8,85.4,75.5,65.4,66.8,64.1,60.0,93,70,46,29.83,29.73,19,5,37,0.45
2014-5-9,71.5,65.2,54.0,64.5,57.0,48.0,94,76,50,29.88,29.66,28,8,28,0.50
2014-5-10,77.3,65.0,50.0,55.1,49.5,45.2,88,61,34,29.95,29.81,20,3,20,0.00
2014-5-11,83.4,70.5,59.3,71.1,62.3,53.5,90,76,61,29.90,29.78,19,5,22,0.01
2014-5-12,87.8,76.4,65.6,71.0,68.7,63.3,94,78,52,29.89,29.72,43,6,43,0.19
2014-5-13,65.9,55.1,49.5,64.6,51.8,45.5,96,89,80,30.20,29.80,22,10,22,0.17
2014-5-14,53.9,48.1,45.0,45.8,43.5,42.0,90,84,69,30.21,30.16,15,7,15,0.00
2014-5-15,57.4,49.5,44.0,46.5,44.4,40.3,93,83,55,30.05,29.98,13,4,22,0.21
2014-5-16,50.7,44.7,40.1,43.9,40.8,38.0,94,86,68,30.13,29.96,13,6,22,0.01
2014-5-17,60.5,49.6,37.5,43.3,37.4,31.3,95,67,36,30.20,30.12,7,2,21,0.01
2014-5-18,68.5,55.7,40.9,45.2,42.5,37.6,88,63,39,30.26,30.15,8,2,19,0.00
2014-5-19,73.5,63.4,50.0,60.7,51.5,42.9,78,66,51,30.19,29.83,31,8,31,0.00
2014-5-20,84.5,74.0,64.8,68.7,64.4,59.9,86,73,56,29.91,29.78,18,3,18,0.00
2014-5-21,87.1,77.2,69.9,71.5,65.8,53.0,88,69,46,29.95,29.77,17,5,17,0.00
2014-5-22,71.6,64.1,56.2,55.2,52.2,49.3,84,66,51,30.17,29.94,19,5,19,0.00
2014-5-23,79.6,66.9,52.6,56.1,50.2,46.3,86,58,32,30.17,30.08,12,2,12,0.00
2014-5-24,80.3,67.1,50.4,56.0,49.6,41.6,72,54,39,30.19,30.06,12,2,12,0.00
2014-5-25,80.2,71.2,60.6,63.3,57.3,48.6,77,62,49,30.10,29.97,14,3,14,0.00
2014-5-26,87.0,73.5,62.4,70.7,64.1,57.6,89,74,51,30.02,29.88,18,3,19,0.12
2014-5-27,83.3,74.2,66.8,70.2,65.3,62.4,89,75,51,29.95,29.85,19,2,19,0.00
2014-5-28,87.0,73.1,63.0,70.2,65.8,60.6,94,79,44,29.96,29.87,16,2,16,0.25
2014-5-29,83.5,71.0,61.1,71.3,64.9,58.5,92,82,61,30.04,29.95,18,4,18,0.00
2014-5-30,86.0,74.8,62.0,70.5,60.4,50.6,86,63,36,30.10,30.01,15,4,16,0.00
2014-5-31,88.2,75.9,62.6,70.3,63.2,51.8,85,65,49,30.11,29.97,14,4,19,0.00
2014-6-1,86.4,76.5,68.2,74.2,67.2,58.6,88,73,58,30.02,29.82,27,4,27,0.46
2014-6-2,83.5,78.3,72.8,69.7,66.8,65.1,88,68,56,29.88,29.77,27,6,31,0.00
2014-6-3,86.2,75.9,67.8,66.3,62.3,56.4,90,65,39,29.98,29.83,17,4,17,0.04
2014-6-4,69.8,64.8,63.7,65.3,62.8,61.3,96,94,85,29.92,29.55,38,6,38,1.44
2014-6-5,75.1,64.4,56.0,61.6,57.8,54.6,95,81,51,29.97,29.87,8,2,15,0.00
2014-6-6,81.3,70.3,56.3,65.1,59.9,52.2,91,71,52,29.98,29.89,11,1,11,0.00
2014-6-7,78.3,67.8,61.9,65.5,62.4,59.2,96,84,60,29.96,29.70,36,7,36,4.94
2014-6-8,75.5,67.5,60.1,66.0,61.8,55.3,94,83,67,30.00,29.80,19,6,19,0.00
2014-6-9,78.3,67.7,53.3,67.1,57.4,44.7,89,70,57,30.01,29.82,12,2,13,0.00
2014-6-10,66.7,63.7,60.4,64.1,61.7,58.7,96,93,83,29.84,29.71,17,5,17,1.20
2014-6-11,69.3,64.1,61.4,65.0,61.9,60.1,96,92,85,29.78,29.67,15,4,15,0.00
2014-6-12,75.7,67.1,59.2,69.5,62.3,52.7,97,85,70,29.90,29.75,28,6,28,0.01
2014-6-13,75.2,62.8,50.1,59.2,50.5,44.5,90,67,39,30.05,29.90,18,4,18,0.00
2014-6-14,76.9,65.1,50.1,57.2,53.2,47.9,96,68,43,30.08,29.89,22,5,22,0.00
2014-6-15,84.1,71.8,59.0,70.7,62.3,52.9,86,73,59,29.96,29.73,30,6,30,0.00
2014-6-16,87.4,77.3,65.2,76.4,70.2,63.1,95,80,62,30.04,29.81,20,4,20,0.00
2014-6-17,88.3,82.9,73.6,76.4,72.9,66.7,86,72,64,29.93,29.80,19,4,21,0.00
2014-6-18,89.2,80.1,72.8,77.5,73.5,67.7,92,81,65,29.93,29.83,17,3,17,0.01
2014-6-19,89.7,80.3,70.2,77.0,73.1,68.1,95,80,61,30.01,29.89,18,3,18,0.64
2014-6-20,85.3,75.4,69.2,73.8,69.4,63.8,97,83,51,29.97,29.91,20,3,20,0.00
2014-6-21,85.7,74.3,65.7,74.2,68.0,64.0,95,81,63,29.94,29.81,20,2,20,0.03
2014-6-22,83.9,72.2,64.0,74.9,67.7,62.2,96,86,68,29.91,29.79,41,2,48,2.36
2014-6-23,80.1,72.3,66.5,73.5,69.0,65.1,97,90,73,29.85,29.78,15,2,15,0.12
2014-6-24,82.8,75.2,68.9,72.5,68.3,64.7,96,80,57,29.91,29.82,17,4,18,0.01
2014-6-25,85.0,75.8,66.1,70.5,66.5,63.5,93,75,49,29.98,29.90,17,3,17,0.00
2014-6-26,85.0,74.5,64.1,72.2,68.0,62.3,96,81,59,30.02,29.90,15,2,15,0.00
2014-6-27,85.0,76.4,68.6,74.7,70.3,66.7,95,82,62,29.96,29.89,20,5,20,0.00
2014-6-28,83.3,76.1,70.1,76.3,71.9,67.7,96,87,75,29.97,29.82,18,5,18,0.01
2014-6-29,83.6,75.9,68.1,76.7,71.6,66.2,95,87,76,29.96,29.80,28,4,28,0.28
2014-6-30,85.8,75.5,66.2,79.8,72.3,64.4,96,90,78,29.89,29.60,43,6,44,1.25
2014-7-1,80.3,72.5,66.7,68.8,66.3,63.1,97,82,60,29.83,29.67,27,6,27,0.22
2014-7-2,67.4,63.0,59.6,63.0,58.7,56.5,94,86,74,30.05,29.83,20,7,20,0.01
2014-7-3,75.5,65.9,57.2,62.9,58.5,55.8,95,79,54,30.20,30.04,15,4,17,0.00
2014-7-4,76.7,66.5,53.1,61.7,56.2,50.9,95,72,44,30.31,30.20,13,1,13,0.00
2014-7-5,73.5,67.8,57.2,65.1,61.2,54.6,95,80,61,30.24,30.03,14,3,14,0.33
2014-7-6,84.3,74.1,63.5,75.0,68.9,61.8,95,85,69,30.03,29.76,16,3,18,0.00
2014-7-7,85.1,78.9,73.0,75.5,70.8,65.9,91,77,54,29.77,29.62,18,4,20,0.00
2014-7-8,78.4,73.4,66.5,71.9,65.8,61.7,92,78,60,29.86,29.59,27,11,27,0.08
2014-7-9,77.0,69.5,61.0,64.2,61.1,55.8,93,76,51,30.05,29.86,19,5,19,0.00
2014-7-10,79.3,67.1,56.1,65.8,60.4,54.5,97,81,56,30.16,30.05,9,1,10,0.00
2014-7-11,81.2,71.0,58.5,70.5,63.9,55.1,89,79,64,30.17,30.01,17,3,17,0.00
2014-7-12,86.8,79.2,72.6,78.7,73.4,67.7,90,83,73,30.06,29.85,36,3,36,0.06
2014-7-13,83.3,75.0,69.4,73.2,70.2,66.7,96,86,66,29.95,29.86,27,3,27,0.37
2014-7-14,78.4,69.8,58.8,72.0,62.4,51.3,97,79,53,29.94,29.82,27,7,27,0.27
2014-7-15,67.4,59.2,53.9,59.1,53.6,50.8,91,82,67,30.01,29.91,22,10,22,0.00
2014-7-16,74.8,63.6,52.4,61.5,56.1,50.4,95,78,47,30.05,30.00,13,2,13,0.00
2014-7-17,78.4,66.3,52.5,62.8,58.0,51.1,96,77,50,30.10,30.03,9,0,9,0.00
2014-7-18,78.8,68.3,56.2,65.6,60.2,54.5,95,77,52,30.14,30.05,11,1,11,0.00
2014-7-19,80.0,67.7,54.9,66.8,60.2,53.4,97,79,52,30.07,29.99,7,0,7,0.00
2014-7-20,79.0,69.5,57.8,68.3,63.0,55.9,95,81,63,30.05,29.98,16,2,16,0.00
2014-7-21,84.0,73.4,61.9,73.5,67.1,59.8,94,81,67,30.07,29.99,14,3,14,0.00
2014-7-22,83.8,77.9,67.9,76.2,74.1,65.6,94,88,76,30.02,29.93,13,2,17,0.00
2014-7-23,78.7,72.8,61.8,76.0,64.6,57.4,94,77,54,30.12,29.95,19,6,19,0.00
2014-7-24,77.6,66.4,55.2,63.6,57.0,52.4,93,74,50,30.16,29.98,14,2,15,0.00
2014-7-25,74.7,64.4,58.3,65.9,60.4,55.1,95,87,71,30.08,29.84,21,3,21,0.44
2014-7-26,81.2,73.7,67.3,77.0,70.4,62.7,97,89,85,29.88,29.76,14,2,16,0.00
2014-7-27,81.7,75.0,65.4,75.4,65.8,60.2,98,74,53,29.92,29.76,36,12,36,0.03
2014-7-28,73.8,65.4,56.6,61.3,56.9,53.3,94,76,52,30.11,29.92,22,7,22,0.00
2014-7-29,77.9,66.6,54.3,62.6,57.8,51.9,93,75,51,30.10,30.02,19,4,19,0.00
2014-7-30,79.3,69.3,59.1,64.0,60.4,56.4,92,75,51,30.06,30.00,19,4,19,0.00
2014-7-31,81.3,69.8,57.0,67.7,62.0,55.4,97,79,53,30.07,30.01,12,1,13,0.00
2014-8-1,81.0,68.4,61.5,67.7,63.1,59.8,97,84,58,30.09,30.01,20,2,23,0.12
2014-8-2,83.5,71.4,56.0,70.9,64.1,54.9,98,80,55,30.15,30.06,8,0,8,0.00
2014-8-3,83.4,71.8,58.7,70.2,64.7,57.3,97,80,58,30.16,30.05,17,1,17,0.00
2014-8-4,84.0,72.7,62.8,71.9,66.4,61.0,96,82,60,30.09,29.97,19,2,19,0.64
2014-8-5,77.6,70.6,65.0,70.4,67.4,63.7,97,90,77,30.03,29.96,15,2,15,0.20
2014-8-6,74.9,68.8,62.1,69.9,66.4,61.0,98,92,79,30.07,29.98,9,1,9,0.02
2014-8-7,70.4,68.5,65.9,67.4,64.8,57.9,96,88,73,30.02,29.94,17,4,17,0.63
2014-8-8,69.1,68.0,67.0,63.8,63.3,62.3,87,85,83,29.96,29.93,12,4,13,0.01
2014-8-9,79.9,74.8,64.7,69.0,66.4,62.9,95,76,64,30.03,29.97,15,4,15,0.00
2014-8-10,81.0,72.5,65.1,73.7,68.2,63.2,96,87,74,30.01,29.91,11,2,11,0.85
2014-8-11,80.3,72.6,64.1,73.1,68.2,59.8,97,87,70,29.93,29.82,27,7,27,0.11
2014-8-12,75.3,66.2,57.7,61.1,58.6,54.6,94,78,56,30.00,29.84,26,10,26,0.00
2014-8-13,78.9,67.5,54.1,65.1,59.5,51.2,92,77,55,30.09,30.00,15,3,15,0.00
2014-8-14,79.8,70.4,60.7,68.1,63.8,57.0,92,80,63,30.06,29.99,10,3,11,0.00
2014-8-15,72.8,64.8,55.8,66.3,59.2,51.4,92,83,69,30.07,29.93,12,2,12,0.00
2014-8-16,72.5,68.6,65.1,69.2,66.5,63.4,96,93,87,29.93,29.85,17,2,17,0.05
2014-8-17,76.1,70.1,66.3,71.2,67.7,64.5,97,92,83,29.92,29.84,13,2,13,0.06
2014-8-18,82.0,72.3,62.9,72.7,68.4,61.8,98,88,70,29.91,29.76,11,1,11,0.00
2014-8-19,83.1,73.6,67.7,73.7,70.1,66.5,97,89,67,29.80,29.71,38,2,38,1.04
2014-8-20,80.0,71.2,62.3,74.3,68.6,61.2,98,92,80,29.94,29.80,14,1,15,0.00
2014-8-21,86.4,81.9,71.0,79.9,76.8,69.8,96,85,74,29.92,29.84,12,1,13,0.00
2014-8-22,85.3,77.4,71.5,79.1,74.7,69.4,97,92,77,29.96,29.82,31,3,31,0.56
2014-8-23,81.0,76.0,71.2,78.6,73.3,69.7,98,91,79,29.97,29.86,29,2,29,0.25
2014-8-24,91.3,80.6,69.7,82.8,75.9,68.2,96,86,70,29.94,29.87,10,3,10,0.00
2014-8-25,92.7,81.6,72.9,82.8,77.1,70.1,98,87,68,30.01,29.91,15,2,15,0.00
2014-8-26,86.7,77.5,70.4,78.8,73.4,68.6,95,88,74,30.07,29.97,17,2,17,0.00
2014-8-27,82.2,75.0,68.7,74.3,70.5,66.9,96,86,72,30.10,30.02,10,2,10,0.00
2014-8-28,82.3,71.8,65.9,75.4,67.9,61.3,97,88,77,30.06,29.94,27,4,27,0.29
2014-8-29,86.5,74.4,68.9,76.7,70.8,66.9,97,89,66,29.96,29.80,26,4,26,0.34
2014-8-30,83.4,76.8,69.8,74.5,71.7,68.6,97,85,70,29.89,29.81,22,2,22,0.01
2014-8-31,85.0,75.2,67.9,76.6,71.6,66.7,98,89,71,29.92,29.79,13,2,13,0.00
2014-9-1,80.2,74.2,67.9,71.9,68.9,66.1,97,84,68,29.86,29.66,23,4,23,0.00
2014-9-2,80.9,73.9,63.6,71.6,68.1,62.0,96,83,61,29.97,29.83,16,3,19,0.00
2014-9-3,82.5,72.3,59.5,72.1,66.6,58.7,98,83,63,30.02,29.90,14,2,15,0.01
2014-9-4,87.9,78.3,66.6,79.5,73.0,65.1,97,84,73,30.01,29.85,19,5,21,0.80
2014-9-5,87.0,74.9,61.3,77.6,69.7,58.0,95,84,69,30.10,29.89,31,5,34,0.01
2014-9-6,73.3,63.5,55.8,60.6,56.9,53.4,94,80,53,30.19,30.08,13,5,14,0.00
2014-9-7,76.8,64.3,53.1,61.9,55.8,51.1,94,76,49,30.22,30.09,10,1,10,0.00
2014-9-8,78.1,66.1,51.8,62.2,57.1,49.8,95,75,47,30.12,29.91,14,2,16,0.01
2014-9-9,70.7,66.2,62.3,67.8,63.5,58.4,97,91,70,30.02,29.78,16,4,21,1.33
2014-9-10,77.3,70.9,59.3,73.7,68.0,55.8,97,91,76,29.89,29.55,26,8,28,2.22
2014-9-11,59.3,54.0,51.2,55.8,50.3,46.4,92,87,79,30.28,29.89,18,8,21,0.00
2014-9-12,54.4,49.6,43.9,48.9,46.2,41.7,94,88,77,30.35,30.25,18,6,19,0.07
2014-9-13,60.4,48.0,38.2,47.0,42.0,37.2,97,82,50,30.41,30.30,11,2,12,0.01
2014-9-14,67.2,53.1,38.6,52.7,45.1,37.1,96,77,47,30.33,30.16,11,1,11,0.00
2014-9-15,59.9,55.6,49.9,58.1,53.7,48.2,97,93,89,30.19,30.01,16,2,16,0.51
2014-9-16,68.3,54.9,43.0,54.2,48.2,41.9,97,80,49,30.24,30.08,9,1,9,0.01
2014-9-17,67.8,55.8,45.4,57.6,51.5,44.0,97,87,65,30.08,29.94,12,1,12,0.00
2014-9-18,73.0,60.0,46.3,58.2,52.1,45.0,98,77,51,30.10,30.01,15,2,15,0.01
2014-9-19,75.9,63.1,49.5,59.9,54.9,47.6,95,76,52,30.12,29.94,18,3,18,0.00
2014-9-20,79.1,69.5,58.7,72.0,64.8,56.5,95,85,74,29.96,29.79,24,4,25,0.00
2014-9-21,71.7,61.4,52.2,68.1,54.5,49.8,93,79,58,30.15,29.79,29,10,30,0.00
2014-9-22,71.4,55.8,43.2,52.9,47.4,41.9,96,77,43,30.32,30.15,8,1,9,0.01
2014-9-23,75.2,59.5,43.7,54.9,49.0,42.1,96,72,40,30.34,30.22,11,2,13,0.00
2014-9-24,77.0,62.3,51.4,56.3,51.3,48.3,91,71,37,30.31,30.20,13,2,13,0.00
2014-9-25,80.0,66.9,57.6,64.3,57.6,51.9,87,73,46,30.26,30.15,13,2,13,0.00
2014-9-26,83.8,68.3,55.5,65.3,58.7,53.2,94,74,45,30.22,30.13,9,2,11,0.00
2014-9-27,83.3,69.2,55.5,64.1,58.2,52.9,93,70,43,30.21,30.08,18,2,18,0.00
2014-9-28,84.9,67.6,54.0,63.3,57.3,52.1,95,73,41,30.14,30.03,10,0,11,0.00
2014-9-29,83.3,68.6,54.6,63.0,58.7,52.6,95,74,46,30.04,29.91,15,1,16,0.00
2014-9-30,62.7,57.9,55.6,58.8,55.4,52.8,94,92,84,30.00,29.91,12,3,13,0.00
2014-10-1,75.8,68.0,51.2,66.0,62.1,48.1,93,82,63,29.95,29.80,14,4,17,0.24
2014-10-2,67.8,65.8,64.0,65.4,64.3,62.6,97,95,92,29.83,29.57,22,2,23,0.56
2014-10-3,64.5,52.8,44.8,63.6,45.1,29.1,98,76,53,29.94,29.54,35,15,35,0.24
2014-10-4,51.4,43.9,37.8,37.1,33.8,29.6,80,68,55,29.88,29.82,30,11,34,0.00
2014-10-5,61.6,48.9,39.1,46.0,40.7,34.8,90,75,47,29.83,29.66,15,1,18,0.00
2014-10-6,64.0,55.4,49.1,49.2,44.0,38.4,91,67,41,29.71,29.60,30,7,33,0.00
2014-10-7,70.9,58.8,50.6,56.2,48.9,43.1,94,72,39,29.92,29.64,33,6,33,0.03
2014-10-8,67.8,55.3,45.0,46.5,43.0,38.5,86,66,36,30.10,29.91,21,5,21,0.00
2014-10-9,61.3,55.2,51.0,54.1,50.7,45.5,95,85,71,30.14,30.05,12,2,12,0.28
2014-10-10,59.7,51.8,44.6,46.1,43.0,41.0,90,73,53,30.17,30.08,13,3,13,0.00
2014-10-11,60.9,48.0,38.5,44.7,39.8,35.3,96,76,44,30.26,30.12,11,1,11,0.00
2014-10-12,55.8,49.0,41.2,55.0,46.1,37.2,97,90,80,30.12,29.84,13,2,13,0.07
2014-10-13,67.7,60.5,55.8,66.5,59.7,54.9,98,97,94,29.86,29.49,32,6,32,0.55
2014-10-14,62.8,57.5,53.4,60.5,56.0,52.1,96,95,89,29.65,29.40,22,6,22,0.83
2014-10-15,54.0,52.5,50.7,52.3,49.9,48.6,96,91,84,29.86,29.65,22,9,22,0.11
2014-10-16,68.8,57.8,51.9,57.4,52.5,50.2,96,83,63,29.89,29.65,11,2,11,0.01
2014-10-17,60.9,55.9,51.2,50.4,47.9,45.7,83,75,65,29.95,29.63,32,12,32,0.00
2014-10-18,52.8,49.8,45.4,47.0,45.1,42.5,93,84,73,30.22,29.95,21,7,21,0.00
2014-10-19,61.2,50.0,36.4,48.0,43.7,34.8,97,80,60,30.23,29.95,16,2,16,0.00
2014-10-20,67.0,55.9,47.3,50.3,47.2,42.6,91,74,50,30.01,29.86,26,7,26,0.00
2014-10-21,59.4,49.1,39.7,45.6,41.6,37.6,95,76,51,30.25,30.00,19,2,19,0.00
2014-10-22,60.5,46.3,33.6,44.3,38.7,31.7,96,77,49,30.36,30.22,13,2,13,0.00
2014-10-23,60.2,49.5,37.8,49.6,43.4,35.1,93,80,63,30.24,30.06,14,2,14,0.01
2014-10-24,64.8,54.9,42.4,56.5,50.5,40.6,97,86,67,30.09,29.93,10,1,10,0.00
2014-10-25,74.5,59.3,47.8,57.3,48.3,40.0,97,71,33,30.02,29.92,16,4,16,0.01
2014-10-26,69.8,56.3,41.9,47.1,38.4,34.3,85,54,28,30.04,29.77,18,4,18,0.00
2014-10-27,76.3,67.3,58.0,62.7,58.5,46.7,94,74,58,29.77,29.56,21,5,21,0.00
2014-10-28,68.6,55.3,45.2,61.5,42.0,35.5,79,62,40,30.05,29.67,33,13,33,0.00
2014-10-29,51.2,43.3,34.5,37.9,35.4,31.3,89,74,57,30.17,30.04,26,8,26,0.00
2014-10-30,48.1,41.4,31.4,42.8,37.9,29.1,95,88,78,30.17,30.05,8,1,8,0.00
2014-10-31,45.8,39.6,30.6,42.7,28.6,22.4,94,66,45,30.42,30.10,31,15,34,0.02
2014-11-1,47.8,34.4,23.9,31.3,25.4,19.9,86,71,48,30.51,30.40,14,4,14,0.00
2014-11-2,49.8,39.5,28.3,32.4,28.1,24.3,88,66,38,30.43,30.17,22,7,22,0.00
2014-11-3,67.1,54.5,43.5,49.3,38.6,30.0,62,55,49,30.17,29.96,16,6,18,0.00
2014-11-4,60.8,49.5,43.1,53.4,43.6,39.1,92,80,53,30.14,29.92,26,7,26,0.04
2014-11-5,63.2,50.6,35.4,45.2,38.5,33.3,95,67,34,30.18,29.91,22,3,22,0.01
2014-11-6,51.4,41.5,28.6,47.0,35.8,24.7,92,80,65,30.28,29.88,38,15,38,0.05
2014-11-7,48.2,37.6,24.9,34.9,30.6,22.4,92,77,56,30.28,29.80,16,3,16,0.00
2014-11-8,48.6,42.3,33.6,41.3,31.0,26.8,79,64,51,30.06,29.77,33,11,38,0.00
2014-11-9,59.7,45.4,31.7,39.2,33.7,26.4,83,65,43,30.02,29.77,21,2,24,0.00
2014-11-10,67.2,54.1,41.6,49.0,43.5,36.5,86,68,50,29.78,29.46,30,7,30,0.00
2014-11-11,57.1,36.7,29.5,46.6,31.4,23.2,90,81,68,30.26,29.58,32,16,32,0.05
2014-11-12,29.6,26.3,23.0,23.4,17.9,14.5,78,70,62,30.41,30.26,23,13,24,0.00
2014-11-13,30.6,24.6,18.8,21.5,18.2,14.8,88,77,57,30.43,30.39,26,11,28,0.00
2014-11-14,26.9,20.5,15.1,18.1,14.5,11.3,88,77,62,30.47,30.40,13,5,15,0.00
2014-11-15,32.1,23.8,14.2,22.7,17.3,11.6,91,77,59,30.44,30.23,5,0,9,0.00
2014-11-16,31.1,27.1,17.0,27.6,24.0,14.1,92,88,83,30.23,30.01,13,3,18,0.00
2014-11-17,20.9,16.9,12.8,13.1,9.1,5.4,85,72,55,30.18,29.99,38,18,40,0.00
2014-11-18,19.1,13.6,10.7,7.8,6.7,5.8,80,74,57,30.26,30.17,20,14,27,0.00
2014-11-19,30.7,26.2,19.1,22.5,17.4,12.2,75,69,62,30.16,29.84,36,16,42,0.00
2014-11-20,32.0,23.0,12.8,17.9,13.0,6.3,80,66,44,30.40,30.15,27,9,27,0.00
2014-11-21,36.9,25.3,10.4,30.6,13.3,5.7,90,63,37,30.49,30.19,20,7,20,0.01
2014-11-22,56.7,47.4,33.2,50.7,43.8,30.5,94,88,80,30.19,29.82,18,4,18,0.02
2014-11-23,52.8,50.0,47.0,50.6,48.3,44.7,97,94,89,29.82,29.14,18,6,18,0.43
2014-11-24,50.5,33.5,29.1,49.7,31.2,24.6,97,91,83,29.94,29.13,42,19,42,0.21
2014-11-25,29.2,24.4,19.2,25.1,20.2,14.8,92,84,80,30.21,29.94,29,10,29,0.00
2014-11-26,31.4,27.5,19.5,28.1,25.0,17.6,94,90,87,30.29,30.08,16,7,16,0.00
2014-11-27,26.7,20.1,8.0,23.7,16.8,4.7,90,87,79,30.50,30.28,22,8,22,0.00
2014-11-28,37.9,30.7,13.1,32.9,26.7,9.7,92,85,78,30.45,29.85,25,8,25,0.00
2014-11-29,55.6,44.6,34.4,48.8,41.3,32.0,95,88,77,29.85,29.62,15,5,15,0.00
2014-11-30,50.1,37.3,24.4,47.5,34.8,19.4,95,91,81,30.37,29.64,24,10,24,0.01
2014-12-1,24.4,21.2,15.2,19.6,12.9,9.0,83,70,56,30.70,30.36,21,9,21,0.00
2014-12-2,30.3,26.1,13.3,24.9,21.5,9.4,89,83,79,30.56,30.14,11,1,12,0.00
2014-12-3,37.7,29.3,24.5,25.4,21.7,18.3,89,74,50,30.43,30.15,16,5,16,0.00
2014-12-4,35.0,31.5,25.6,32.0,25.5,19.2,93,79,65,30.41,30.22,12,4,13,0.00
2014-12-5,39.7,36.1,33.5,37.9,34.6,31.7,96,94,92,30.25,30.13,10,2,10,0.04
2014-12-6,38.6,33.3,28.0,34.6,30.8,24.9,96,91,78,30.65,30.25,18,5,18,0.17
2014-12-7,35.7,31.1,25.2,31.3,28.1,22.9,93,88,82,30.65,30.27,16,4,16,0.00
2014-12-8,40.8,36.1,31.7,39.5,33.9,27.4,96,92,83,30.28,30.06,30,7,30,0.08
2014-12-9,34.9,33.0,30.9,31.5,29.6,27.4,90,87,84,30.43,30.19,20,8,22,0.00
2014-12-10,32.8,31.1,28.5,29.5,26.5,23.7,89,83,78,30.44,30.32,8,1,8,0.00
2014-12-11,32.3,28.6,23.7,26.4,24.2,21.2,92,83,77,30.37,30.30,9,1,9,0.00
2014-12-12,38.2,35.3,24.4,35.8,32.3,22.4,94,89,83,30.39,30.28,5,2,8,0.00
2014-12-13,50.9,43.9,37.3,45.6,40.9,35.2,94,89,82,30.29,30.11,9,2,9,0.00
2014-12-14,48.2,45.5,43.6,47.4,44.4,41.7,97,96,92,30.12,30.08,13,3,13,0.00
2014-12-15,48.8,46.8,44.5,48.3,46.0,43.4,98,97,96,29.96,29.63,25,8,33,0.22
2014-12-16,44.5,34.2,23.4,43.4,32.1,20.0,97,92,87,30.28,29.65,36,16,37,0.07
2014-12-17,28.2,22.5,18.7,22.8,19.1,15.9,91,86,80,30.37,30.28,21,7,21,0.00
2014-12-18,25.4,20.1,16.4,22.4,17.9,14.2,93,91,88,30.36,30.31,0,0,0,0.00
2014-12-19,33.7,28.9,17.4,25.7,23.6,15.3,93,81,69,30.38,30.29,5,0,5,0.00
2014-12-20,35.4,31.6,26.9,31.5,28.6,23.8,91,89,83,30.31,30.24,11,3,11,0.00
2014-12-21,38.6,35.7,33.8,35.0,32.9,31.2,93,90,85,30.24,29.96,20,6,20,0.01
2014-12-22,46.7,39.6,35.1,45.9,38.0,32.5,97,94,88,29.96,29.49,17,7,19,0.50
2014-12-23,48.3,42.2,33.0,46.1,38.6,30.6,97,87,69,29.77,29.48,25,2,25,0.00
2014-12-24,37.0,35.9,34.1,35.4,34.1,31.8,96,93,85,29.80,29.59,23,7,23,0.02
2014-12-25,48.1,39.8,34.6,38.1,34.5,30.5,89,82,64,30.00,29.80,25,5,25,0.00
2014-12-26,53.2,44.4,37.5,45.4,40.1,34.8,94,85,72,30.05,29.98,14,4,15,0.00
2014-12-27,48.8,39.3,28.2,47.4,35.7,24.2,95,87,79,30.20,29.96,32,11,32,0.01
2014-12-28,35.2,26.9,21.7,24.5,21.7,18.8,90,81,60,30.29,30.19,17,3,19,0.00
2014-12-29,36.1,26.6,18.8,26.5,21.9,16.4,93,83,62,30.56,30.28,13,4,14,0.00
2014-12-30,21.7,15.5,9.9,16.8,8.0,2.5,84,72,48,30.77,30.55,18,10,18,0.00
2014-12-31,22.7,13.8,4.4,8.3,3.7,-0.1,82,65,47,30.74,30.31,26,9,26,0.00
2015-1-1,31.1,24.0,16.7,19.0,13.9,7.7,73,65,57,30.31,30.10,28,8,28,0.00
2015-1-2,37.2,29.0,17.9,30.9,21.5,13.3,90,74,54,30.35,30.12,13,1,13,0.05